Time;durP1;ratioP1;P1;durP2;ratioP2;P2;SDS_P1;SDS_P2;PMS_P1;PMS_P2;Temp;Humidity;BMP_temperature;BMP_pressure;BME280_temperature;BME280_humidity;BME280_pressure;Samples;Min_cycle;Max_cycle;Signal;HPM_P1;HPM_P2
2020/12/05 00:01:51;;;;;;;1.93;1.83;;;3.20;99.90;;;;;;4983195;28;20230;-87
2020/12/05 00:04:17;;;;;;;1.80;1.20;;;3.10;99.90;;;;;;4967490;28;20217;-87
2020/12/05 00:06:43;;;;;;;1.03;0.90;;;3.00;99.90;;;;;;4983711;28;20231;-87
2020/12/05 00:09:09;;;;;;;1.33;1.23;;;3.00;99.90;;;;;;4963799;28;21253;-87
2020/12/05 00:11:35;;;;;;;0.83;0.83;;;3.00;99.90;;;;;;4948775;28;20548;-87
2020/12/05 00:14:01;;;;;;;1.17;1.17;;;3.10;99.90;;;;;;4982375;28;20184;-87
2020/12/05 00:16:26;;;;;;;2.23;1.20;;;3.10;99.90;;;;;;4981046;28;20932;-87
2020/12/05 00:18:55;;;;;;;1.50;1.00;;;3.20;99.90;;;;;;4962579;28;20244;-87
2020/12/05 00:21:22;;;;;;;1.13;1.13;;;3.30;99.90;;;;;;4964140;28;20226;-87
2020/12/05 00:23:47;;;;;;;1.43;1.33;;;3.30;99.90;;;;;;4979817;28;20227;-87
2020/12/05 00:26:17;;;;;;;1.60;1.30;;;3.30;99.90;;;;;;4980481;28;20723;-87
2020/12/05 00:28:43;;;;;;;4.77;2.17;;;3.30;99.90;;;;;;4964463;28;20301;-87
2020/12/05 00:31:11;;;;;;;3.43;1.50;;;3.20;99.90;;;;;;4980449;28;20697;-88
2020/12/05 00:33:37;;;;;;;1.33;1.23;;;3.30;99.90;;;;;;4979746;28;20290;-87
2020/12/05 00:36:02;;;;;;;1.03;1.03;;;3.30;99.90;;;;;;4947332;28;20253;-87
2020/12/05 00:38:28;;;;;;;1.57;1.47;;;3.30;99.90;;;;;;4979310;28;20188;-87
2020/12/05 00:40:55;;;;;;;1.70;1.10;;;3.30;99.90;;;;;;4965234;28;20188;-88
2020/12/05 00:43:21;;;;;;;1.87;1.33;;;3.30;99.90;;;;;;4964356;28;20234;-87
2020/12/05 00:45:47;;;;;;;2.33;1.77;;;3.20;99.90;;;;;;4974518;28;20570;-87
2020/12/05 00:48:13;;;;;;;4.90;1.20;;;3.30;99.90;;;;;;4966936;28;20568;-87
2020/12/05 00:50:39;;;;;;;1.23;1.13;;;3.30;99.90;;;;;;4973987;28;20188;-87
2020/12/05 00:53:04;;;;;;;0.77;0.77;;;3.40;99.90;;;;;;4972701;28;20219;-87
2020/12/05 00:55:30;;;;;;;3.30;1.30;;;3.50;99.90;;;;;;4951372;28;20220;-87
2020/12/05 00:57:56;;;;;;;1.37;1.27;;;3.50;99.90;;;;;;4959370;28;20270;-88
2020/12/05 01:00:21;;;;;;;1.67;1.57;;;3.60;99.90;;;;;;4940554;28;20216;-88
2020/12/05 01:02:47;;;;;;;2.00;1.80;;;3.60;99.90;;;;;;4949262;28;21165;-88
2020/12/05 01:05:13;;;;;;;1.83;1.13;;;3.60;99.90;;;;;;4967187;28;20227;-88
2020/12/05 01:07:39;;;;;;;1.13;1.00;;;3.60;99.90;;;;;;4966003;28;20290;-86
2020/12/05 01:10:06;;;;;;;1.00;1.00;;;3.60;99.90;;;;;;4975405;28;20588;-87
2020/12/05 01:12:32;;;;;;;2.40;1.40;;;3.70;99.90;;;;;;4990075;28;20231;-88
2020/12/05 01:15:01;;;;;;;1.70;1.60;;;3.70;99.90;;;;;;4998840;28;20655;-88
2020/12/05 01:17:35;;;;;;;1.67;1.57;;;3.70;99.90;;;;;;4998189;28;20187;-86
2020/12/05 01:20:04;;;;;;;1.60;1.53;;;3.70;99.90;;;;;;4999916;28;20191;-90
2020/12/05 01:22:30;;;;;;;2.60;1.00;;;3.60;99.90;;;;;;5003363;28;20207;-88
2020/12/05 01:24:56;;;;;;;2.40;1.47;;;3.30;99.90;;;;;;4970201;28;20908;-87
2020/12/05 01:27:22;;;;;;;1.10;1.00;;;3.20;99.90;;;;;;5002531;28;20234;-87
2020/12/05 01:29:47;;;;;;;1.00;1.00;;;3.10;99.90;;;;;;4986213;28;20218;-87
2020/12/05 01:32:13;;;;;;;2.20;1.53;;;3.00;99.90;;;;;;4980554;28;20713;-87
2020/12/05 01:34:39;;;;;;;1.17;1.13;;;3.10;99.90;;;;;;5002000;28;20237;-88
2020/12/05 01:37:05;;;;;;;1.07;1.07;;;3.20;99.90;;;;;;4985280;28;20223;-88
2020/12/05 01:39:31;;;;;;;1.97;1.27;;;3.40;99.90;;;;;;4986419;28;20266;-87
2020/12/05 01:41:57;;;;;;;0.70;0.70;;;3.50;99.90;;;;;;4982125;28;20251;-87
2020/12/05 01:44:23;;;;;;;1.77;1.20;;;3.50;99.90;;;;;;4968603;28;20222;-88
2020/12/05 01:46:49;;;;;;;1.70;1.20;;;3.50;99.90;;;;;;4983045;28;21130;-89
2020/12/05 01:49:17;;;;;;;1.67;1.30;;;3.50;99.90;;;;;;4950769;28;20359;-87
2020/12/05 01:51:44;;;;;;;1.37;1.33;;;3.40;99.90;;;;;;4975596;28;20269;-88
2020/12/05 01:54:10;;;;;;;1.93;1.70;;;3.40;99.90;;;;;;4979836;28;20231;-88
2020/12/05 01:56:37;;;;;;;1.27;1.23;;;3.40;99.90;;;;;;4980443;28;20241;-88
2020/12/05 01:59:03;;;;;;;1.53;1.47;;;3.30;99.90;;;;;;4997435;28;20203;-87
2020/12/05 02:01:29;;;;;;;2.07;1.60;;;3.20;99.90;;;;;;4981782;28;20246;-90
2020/12/05 02:03:57;;;;;;;6.53;2.10;;;3.20;99.90;;;;;;4985364;28;20216;-89
2020/12/05 02:07:00;;;;;;;2.43;1.80;;;3.10;99.90;;;;;;5000162;28;20233;-88
2020/12/05 02:09:32;;;;;;;1.90;1.80;;;3.10;99.90;;;;;;4996630;28;20257;-88
2020/12/05 02:12:10;;;;;;;1.60;1.30;;;3.10;99.90;;;;;;4992641;28;20223;-89
2020/12/05 02:14:37;;;;;;;1.87;1.47;;;3.00;99.90;;;;;;4978026;28;20203;-88
2020/12/05 02:17:05;;;;;;;1.53;1.23;;;2.90;99.90;;;;;;4965332;28;20227;-88
2020/12/05 02:19:50;;;;;;;1.17;1.00;;;2.90;99.90;;;;;;4966616;28;20270;-87
2020/12/05 02:22:24;;;;;;;2.20;1.23;;;2.90;99.90;;;;;;4981845;28;20231;-88
2020/12/05 02:24:50;;;;;;;2.93;1.53;;;2.90;99.90;;;;;;4984079;28;20231;-87
2020/12/05 02:27:17;;;;;;;1.40;1.20;;;2.90;99.90;;;;;;4989238;28;20215;-88
2020/12/05 02:29:42;;;;;;;3.43;1.93;;;2.90;99.90;;;;;;4986320;28;20192;-88
2020/12/05 02:32:08;;;;;;;1.00;1.00;;;2.90;99.90;;;;;;4986699;28;20191;-88
2020/12/05 02:34:35;;;;;;;1.23;1.13;;;2.80;99.90;;;;;;4983983;28;20227;-88
2020/12/05 02:37:11;;;;;;;1.03;1.03;;;2.60;99.90;;;;;;4981795;28;20306;-88
2020/12/05 02:39:41;;;;;;;1.60;1.03;;;2.50;99.90;;;;;;4998634;28;20235;-88
2020/12/05 02:42:13;;;;;;;1.73;1.63;;;2.50;99.90;;;;;;4981586;28;20219;-88
2020/12/05 02:45:08;;;;;;;1.23;1.23;;;2.50;99.90;;;;;;4981736;28;20195;-88
2020/12/05 02:47:34;;;;;;;2.03;1.87;;;2.50;99.90;;;;;;4979911;28;20212;-89
2020/12/05 02:50:00;;;;;;;1.10;1.07;;;2.50;99.90;;;;;;4982725;28;20200;-88
2020/12/05 02:52:26;;;;;;;1.77;1.67;;;2.50;99.90;;;;;;4965360;28;21068;-89
2020/12/05 02:54:52;;;;;;;1.40;1.40;;;2.50;99.90;;;;;;4961025;28;20251;-88
2020/12/05 02:57:17;;;;;;;2.93;1.93;;;2.40;99.90;;;;;;4993477;28;20216;-88
2020/12/05 02:59:43;;;;;;;2.17;1.97;;;2.50;99.90;;;;;;4982819;28;21232;-88
2020/12/05 03:02:09;;;;;;;1.30;1.20;;;2.50;99.90;;;;;;4961889;28;21305;-88
2020/12/05 03:04:34;;;;;;;1.90;1.67;;;2.60;99.90;;;;;;4965292;28;20263;-89
2020/12/05 03:07:05;;;;;;;1.17;1.17;;;2.60;99.90;;;;;;4949709;28;20219;-88
2020/12/05 03:09:32;;;;;;;1.17;1.17;;;2.60;99.90;;;;;;4975183;28;20314;-88
2020/12/05 03:11:58;;;;;;;1.37;1.27;;;2.60;99.90;;;;;;4980573;28;20310;-89
2020/12/05 03:14:24;;;;;;;2.87;1.73;;;2.60;99.90;;;;;;4967455;28;20200;-88
2020/12/05 03:16:49;;;;;;;1.27;1.20;;;2.50;99.90;;;;;;4957416;28;20228;-88
2020/12/05 03:19:15;;;;;;;1.53;1.43;;;2.40;99.90;;;;;;4981566;28;20326;-88
2020/12/05 03:21:41;;;;;;;2.60;1.47;;;2.30;99.90;;;;;;4965219;28;20216;-88
2020/12/05 03:24:07;;;;;;;2.13;1.87;;;2.30;99.90;;;;;;4981160;28;20290;-88
2020/12/05 03:26:32;;;;;;;1.60;1.50;;;2.30;99.90;;;;;;4948415;28;20313;-89
2020/12/05 03:28:59;;;;;;;2.23;1.90;;;2.20;99.90;;;;;;4965544;28;20247;-89
2020/12/05 03:31:48;;;;;;;2.23;2.13;;;2.20;99.90;;;;;;4981102;28;20331;-88
2020/12/05 03:34:11;;;;;;;1.23;1.23;;;2.10;99.90;;;;;;4980246;28;20722;-88
2020/12/05 03:36:37;;;;;;;2.03;1.93;;;2.10;99.90;;;;;;4957575;28;20223;-88
2020/12/05 03:39:03;;;;;;;2.37;2.10;;;2.10;99.90;;;;;;5000643;28;20234;-89
2020/12/05 03:41:29;;;;;;;0.70;0.70;;;2.00;99.90;;;;;;5001062;28;20183;-88
2020/12/05 03:43:54;;;;;;;1.23;1.23;;;1.90;99.90;;;;;;5001700;28;20571;-88
2020/12/05 03:46:20;;;;;;;1.97;1.87;;;1.90;99.90;;;;;;4984992;28;20333;-88
2020/12/05 03:48:46;;;;;;;2.93;1.97;;;1.90;99.90;;;;;;4983451;28;20306;-88
2020/12/05 03:51:12;;;;;;;2.03;1.47;;;1.90;99.90;;;;;;4961156;28;20251;-89
2020/12/05 03:53:38;;;;;;;2.57;2.37;;;1.90;99.90;;;;;;4983841;28;20266;-89
2020/12/05 03:56:04;;;;;;;1.67;1.43;;;1.90;99.90;;;;;;4979295;28;20573;-88
2020/12/05 03:58:30;;;;;;;2.93;1.73;;;1.80;99.90;;;;;;5000336;28;20214;-89
2020/12/05 04:00:56;;;;;;;3.07;2.77;;;1.90;99.90;;;;;;4981139;28;20230;-88
2020/12/05 04:03:21;;;;;;;2.07;1.97;;;2.00;99.90;;;;;;4980514;28;21824;-88
2020/12/05 04:05:47;;;;;;;2.27;2.07;;;2.10;99.90;;;;;;4964342;28;20239;-88
2020/12/05 04:08:13;;;;;;;4.10;2.23;;;2.10;99.90;;;;;;4983038;28;20933;-88
2020/12/05 04:10:39;;;;;;;4.27;2.47;;;2.20;99.90;;;;;;4968275;28;20322;-88
2020/12/05 04:13:04;;;;;;;2.40;1.90;;;2.20;99.90;;;;;;4967819;28;20230;-89
2020/12/05 04:15:30;;;;;;;3.57;3.07;;;2.20;99.90;;;;;;4991809;28;20223;-91
2020/12/05 04:17:56;;;;;;;2.37;2.17;;;2.20;99.90;;;;;;4947884;28;20665;-88
2020/12/05 04:20:22;;;;;;;3.10;2.90;;;2.20;99.90;;;;;;4949008;28;20184;-88
2020/12/05 04:22:48;;;;;;;3.50;3.20;;;2.20;99.90;;;;;;4980503;28;20228;-89
2020/12/05 04:25:13;;;;;;;2.33;2.23;;;2.30;99.90;;;;;;4994231;28;20231;-89
2020/12/05 04:27:39;;;;;;;3.67;2.97;;;2.30;99.90;;;;;;4967441;28;21167;-88
2020/12/05 04:30:05;;;;;;;2.67;2.50;;;2.40;99.90;;;;;;4962176;28;20218;-88
2020/12/05 04:32:31;;;;;;;2.53;2.33;;;2.30;99.90;;;;;;4981244;28;20279;-89
2020/12/05 04:34:57;;;;;;;4.50;4.10;;;2.40;99.90;;;;;;4969360;28;20245;-88
2020/12/05 04:37:23;;;;;;;4.47;2.87;;;2.40;99.90;;;;;;4982313;28;20381;-89
2020/12/05 04:39:49;;;;;;;5.30;3.80;;;2.40;99.90;;;;;;4972821;28;20236;-89
2020/12/05 04:42:16;;;;;;;2.87;2.67;;;2.40;99.90;;;;;;4970564;28;20211;-89
2020/12/05 04:44:42;;;;;;;3.53;3.13;;;2.40;99.90;;;;;;4951157;28;20191;-90
2020/12/05 04:47:10;;;;;;;3.47;3.13;;;2.40;99.90;;;;;;4985494;28;20206;-88
2020/12/05 04:49:37;;;;;;;5.67;3.73;;;2.30;99.90;;;;;;4983952;28;20242;-88
2020/12/05 04:52:24;;;;;;;2.87;2.67;;;2.30;99.90;;;;;;4983140;28;20215;-88
2020/12/05 04:54:56;;;;;;;3.10;2.80;;;2.30;99.90;;;;;;4983533;28;20231;-89
2020/12/05 04:57:24;;;;;;;3.90;3.17;;;2.30;99.90;;;;;;4970571;28;20310;-88
2020/12/05 04:59:52;;;;;;;15.93;3.87;;;2.30;99.90;;;;;;5004514;28;20223;-88
2020/12/05 05:02:25;;;;;;;5.33;2.43;;;2.30;99.90;;;;;;5006512;28;20194;-88
2020/12/05 05:04:51;;;;;;;2.73;2.53;;;2.30;99.90;;;;;;4987018;28;20376;-88
2020/12/05 05:07:16;;;;;;;2.50;2.30;;;2.20;99.90;;;;;;4987188;28;20210;-88
2020/12/05 05:09:47;;;;;;;3.20;3.00;;;2.30;99.90;;;;;;4987658;28;20230;-88
2020/12/05 05:12:25;;;;;;;4.90;4.47;;;2.40;99.90;;;;;;4996502;28;20690;-88
2020/12/05 05:14:51;;;;;;;3.97;2.63;;;2.30;99.90;;;;;;4988651;28;20962;-90
2020/12/05 05:17:17;;;;;;;3.60;2.70;;;2.10;99.90;;;;;;4971241;28;20183;-88
2020/12/05 05:19:43;;;;;;;2.97;2.77;;;2.10;99.90;;;;;;4969506;28;20359;-89
2020/12/05 05:22:09;;;;;;;5.77;2.20;;;2.30;99.90;;;;;;4935453;28;20396;-89
2020/12/05 05:24:34;;;;;;;3.60;3.30;;;2.30;99.90;;;;;;4977404;28;20227;-89
2020/12/05 05:27:04;;;;;;;3.67;3.07;;;2.40;99.90;;;;;;4970400;28;20595;-88
2020/12/05 05:29:43;;;;;;;3.40;3.10;;;2.30;99.90;;;;;;4986733;28;20195;-89
2020/12/05 05:32:13;;;;;;;6.57;3.67;;;2.40;99.90;;;;;;5005139;28;20198;-88
2020/12/05 05:34:39;;;;;;;5.23;3.93;;;2.30;99.90;;;;;;5003333;28;20222;-88
2020/12/05 05:37:19;;;;;;;4.13;3.57;;;2.30;99.90;;;;;;4986821;28;20231;-88
2020/12/05 05:39:55;;;;;;;3.23;2.70;;;2.30;99.90;;;;;;4986333;28;20218;-89
2020/12/05 05:42:32;;;;;;;5.23;4.50;;;2.30;99.90;;;;;;4971241;28;20209;-88
2020/12/05 05:45:16;;;;;;;3.30;3.10;;;2.40;99.90;;;;;;4986550;28;20214;-88
2020/12/05 05:47:44;;;;;;;4.23;2.80;;;2.40;99.90;;;;;;4986844;28;20187;-89
2020/12/05 05:50:29;;;;;;;3.10;2.73;;;2.40;99.90;;;;;;4987711;28;20198;-89
2020/12/05 05:52:59;;;;;;;4.00;2.83;;;2.20;99.90;;;;;;5004192;28;20234;-89
2020/12/05 05:55:37;;;;;;;3.70;3.37;;;2.20;99.90;;;;;;4970547;28;20270;-88
2020/12/05 05:58:04;;;;;;;3.00;2.73;;;2.20;99.90;;;;;;4984938;28;20242;-89
2020/12/05 06:00:39;;;;;;;3.13;2.90;;;2.10;99.90;;;;;;4970482;28;20269;-88
2020/12/05 06:03:22;;;;;;;4.87;2.80;;;2.10;99.90;;;;;;5003177;28;20831;-89
2020/12/05 06:05:52;;;;;;;3.30;3.00;;;2.00;99.90;;;;;;4969038;28;20289;-88
2020/12/05 06:08:27;;;;;;;4.27;3.87;;;2.10;99.90;;;;;;4986943;28;20242;-89
2020/12/05 06:11:08;;;;;;;3.53;3.23;;;2.10;99.90;;;;;;4970295;28;20227;-88
2020/12/05 06:13:35;;;;;;;3.83;3.43;;;2.10;99.90;;;;;;4987646;28;20222;-89
2020/12/05 06:16:02;;;;;;;4.83;3.77;;;2.10;99.90;;;;;;4970615;28;20227;-90
2020/12/05 06:18:29;;;;;;;3.80;3.17;;;2.10;99.90;;;;;;4985024;28;20215;-89
2020/12/05 06:20:55;;;;;;;3.13;2.90;;;2.10;99.90;;;;;;4985780;28;20303;-89
2020/12/05 06:23:27;;;;;;;3.30;3.07;;;2.10;99.90;;;;;;4955027;28;20210;-89
2020/12/05 06:25:53;;;;;;;2.67;2.47;;;2.20;99.90;;;;;;5002674;28;20235;-88
2020/12/05 06:28:22;;;;;;;2.50;2.30;;;2.20;99.90;;;;;;4965390;28;20211;-89
2020/12/05 06:30:49;;;;;;;4.20;3.77;;;2.20;99.90;;;;;;4969985;28;20322;-88
2020/12/05 06:33:45;;;;;;;7.23;3.57;;;2.30;99.90;;;;;;4970495;28;20235;-90
2020/12/05 06:36:26;;;;;;;3.07;2.37;;;2.40;99.90;;;;;;5003614;28;20235;-90
2020/12/05 06:39:22;;;;;;;2.80;2.60;;;2.50;99.90;;;;;;5003025;28;20233;-89
2020/12/05 06:41:52;;;;;;;3.37;3.13;;;2.40;99.90;;;;;;4960779;28;20226;-88
2020/12/05 06:44:20;;;;;;;5.10;3.37;;;2.60;99.90;;;;;;4983560;28;20191;-89
2020/12/05 06:46:56;;;;;;;4.77;4.00;;;2.50;99.90;;;;;;4964762;28;20615;-88
2020/12/05 06:49:37;;;;;;;3.20;3.00;;;2.50;99.90;;;;;;4997986;28;20572;-90
2020/12/05 06:52:25;;;;;;;3.13;2.83;;;2.50;99.90;;;;;;4981818;28;20234;-89
2020/12/05 06:55:13;;;;;;;6.20;4.07;;;2.50;99.90;;;;;;4998264;28;20222;-88
2020/12/05 06:57:42;;;;;;;2.80;2.60;;;2.40;99.90;;;;;;4980749;28;20345;-87
2020/12/05 07:00:22;;;;;;;4.20;3.77;;;2.50;99.90;;;;;;4997701;28;20219;-88
2020/12/05 07:02:54;;;;;;;5.20;4.70;;;2.60;99.90;;;;;;4996600;28;20215;-89
2020/12/05 07:05:20;;;;;;;4.80;4.40;;;2.70;99.90;;;;;;5001088;28;20215;-87
2020/12/05 07:07:50;;;;;;;5.43;4.03;;;2.70;99.90;;;;;;4983374;28;20254;-87
2020/12/05 07:10:17;;;;;;;5.13;3.90;;;2.70;99.90;;;;;;4982470;28;20247;-87
2020/12/05 07:12:44;;;;;;;5.07;4.63;;;2.80;99.90;;;;;;4982548;28;20385;-86
2020/12/05 07:15:19;;;;;;;5.57;3.93;;;2.90;99.90;;;;;;4981791;28;20219;-85
2020/12/05 07:17:45;;;;;;;4.00;3.23;;;2.90;99.90;;;;;;4981635;28;20286;-90
2020/12/05 07:20:11;;;;;;;8.50;6.97;;;3.00;99.90;;;;;;4968347;28;20257;-87
2020/12/05 07:22:36;;;;;;;10.73;9.63;;;2.90;99.90;;;;;;4967193;28;20211;-86
2020/12/05 07:25:03;;;;;;;15.10;12.00;;;3.00;99.90;;;;;;4966517;28;20234;-87
2020/12/05 07:27:28;;;;;;;12.17;8.73;;;3.00;99.90;;;;;;4966928;28;20676;-87
2020/12/05 07:29:55;;;;;;;6.80;5.77;;;3.10;99.90;;;;;;5000732;28;20222;-86
2020/12/05 07:32:20;;;;;;;60.33;46.43;;;3.20;99.90;;;;;;5002636;28;20191;-88
2020/12/05 07:34:47;;;;;;;20.87;15.37;;;3.20;99.90;;;;;;4968537;28;20230;-87
2020/12/05 07:37:26;;;;;;;10.10;7.17;;;3.20;99.90;;;;;;4965471;28;20238;-86
2020/12/05 07:39:53;;;;;;;19.80;12.67;;;3.20;99.90;;;;;;4983029;28;20230;-88
2020/12/05 07:42:19;;;;;;;9.57;8.43;;;3.20;99.90;;;;;;4983662;28;20677;-87
2020/12/05 07:44:45;;;;;;;9.07;8.20;;;3.20;99.90;;;;;;4983114;28;20254;-87
2020/12/05 07:47:21;;;;;;;8.20;6.10;;;3.20;99.90;;;;;;4984078;28;21029;-88
2020/12/05 07:49:54;;;;;;;11.13;7.53;;;3.30;99.90;;;;;;4998916;28;20237;-87
2020/12/05 07:52:21;;;;;;;9.63;8.70;;;3.30;99.90;;;;;;5000309;28;20767;-87
2020/12/05 07:55:02;;;;;;;8.37;7.50;;;3.30;99.90;;;;;;4972041;28;20598;-90
2020/12/05 07:57:30;;;;;;;10.60;8.23;;;3.40;99.90;;;;;;4972625;28;20211;-91
2020/12/05 08:00:13;;;;;;;11.10;6.07;;;3.40;99.90;;;;;;5001201;28;21226;-89
2020/12/05 08:03:04;;;;;;;7.73;5.87;;;3.40;99.90;;;;;;4966992;28;20183;-88
2020/12/05 08:05:29;;;;;;;8.83;7.60;;;3.40;99.90;;;;;;5000698;28;20993;-89
2020/12/05 08:08:04;;;;;;;11.90;8.77;;;3.50;99.90;;;;;;4985004;28;20187;-86
2020/12/05 08:10:33;;;;;;;15.97;7.77;;;3.50;99.90;;;;;;4969336;28;20230;-89
2020/12/05 08:13:18;;;;;;;7.40;6.80;;;3.50;99.90;;;;;;4970902;28;20224;-88
2020/12/05 08:15:46;;;;;;;7.77;6.67;;;3.50;99.90;;;;;;4973975;28;20309;-89
2020/12/05 08:18:14;;;;;;;4.50;4.20;;;3.60;99.90;;;;;;5000538;28;20561;-90
2020/12/05 08:20:44;;;;;;;7.90;5.03;;;3.60;99.90;;;;;;4981995;28;20195;-90
2020/12/05 08:23:20;;;;;;;7.60;6.53;;;3.60;99.90;;;;;;4983097;28;21022;-89
2020/12/05 08:25:48;;;;;;;9.23;7.67;;;3.60;99.90;;;;;;4955857;28;20242;-90
2020/12/05 08:28:15;;;;;;;7.40;6.40;;;3.60;99.90;;;;;;4962450;28;20756;-89
2020/12/05 08:30:42;;;;;;;7.93;6.47;;;3.60;99.90;;;;;;4957560;28;20226;-89
2020/12/05 08:33:09;;;;;;;6.03;4.97;;;3.70;99.90;;;;;;4963741;28;20303;-87
2020/12/05 08:35:34;;;;;;;5.90;5.20;;;3.70;99.90;;;;;;4965215;28;21218;-90
2020/12/05 08:38:02;;;;;;;6.63;5.27;;;3.70;99.90;;;;;;4952264;28;20188;-89
2020/12/05 08:40:29;;;;;;;7.17;4.90;;;3.80;99.90;;;;;;4981793;28;20251;-89
2020/12/05 08:42:56;;;;;;;6.33;5.70;;;3.70;99.90;;;;;;4988590;28;20283;-88
2020/12/05 08:45:22;;;;;;;6.90;4.07;;;3.80;99.90;;;;;;4970474;28;20254;-88
2020/12/05 08:47:53;;;;;;;7.27;4.53;;;3.80;99.90;;;;;;4966664;28;20227;-89
2020/12/05 08:50:33;;;;;;;8.87;4.90;;;3.90;99.90;;;;;;4984258;28;20222;-88
2020/12/05 08:53:01;;;;;;;4.63;3.80;;;3.80;99.90;;;;;;4982555;28;20219;-89
2020/12/05 08:55:31;;;;;;;5.73;5.20;;;3.90;99.90;;;;;;4997578;28;20222;-88
2020/12/05 08:58:07;;;;;;;6.73;5.73;;;3.90;99.90;;;;;;4966789;28;20234;-89
2020/12/05 09:00:35;;;;;;;6.00;4.87;;;4.00;99.90;;;;;;4982169;28;20214;-88
2020/12/05 09:03:02;;;;;;;6.07;4.20;;;4.00;99.90;;;;;;5000439;28;21170;-88
2020/12/05 09:05:29;;;;;;;6.20;4.23;;;4.00;99.90;;;;;;4965735;28;20219;-88
2020/12/05 09:07:57;;;;;;;7.50;5.00;;;4.10;99.90;;;;;;4981913;28;20188;-88
2020/12/05 09:10:24;;;;;;;4.53;3.53;;;4.10;99.90;;;;;;4980705;28;20302;-88
2020/12/05 09:12:51;;;;;;;7.17;4.10;;;4.10;99.90;;;;;;4979315;28;20230;-88
2020/12/05 09:15:17;;;;;;;4.60;3.70;;;4.20;99.90;;;;;;4963382;28;21228;-88
2020/12/05 09:17:43;;;;;;;3.47;3.13;;;4.20;99.90;;;;;;4980408;28;20188;-87
2020/12/05 09:20:18;;;;;;;5.37;4.47;;;4.20;99.90;;;;;;4999471;28;20221;-88
2020/12/05 09:22:49;;;;;;;6.73;3.83;;;4.10;99.90;;;;;;4999152;28;20226;-88
2020/12/05 09:25:35;;;;;;;8.17;5.43;;;4.10;99.90;;;;;;4999770;28;20230;-90
2020/12/05 09:28:07;;;;;;;4.77;4.37;;;4.20;99.90;;;;;;4986458;28;20604;-88
2020/12/05 09:30:33;;;;;;;5.20;3.53;;;4.30;99.90;;;;;;4972544;28;20273;-88
2020/12/05 09:32:59;;;;;;;6.27;4.17;;;4.30;99.90;;;;;;4994484;28;20307;-87
2020/12/05 09:35:27;;;;;;;5.13;4.63;;;4.40;99.90;;;;;;4980654;28;20192;-88
2020/12/05 09:37:53;;;;;;;5.37;4.60;;;4.50;99.90;;;;;;4999326;28;20227;-89
2020/12/05 09:40:20;;;;;;;4.40;4.10;;;4.70;99.90;;;;;;4999336;28;20269;-88
2020/12/05 09:42:47;;;;;;;5.10;4.70;;;4.80;99.90;;;;;;4989913;28;20220;-88
2020/12/05 09:45:14;;;;;;;5.67;4.57;;;4.90;99.90;;;;;;4972497;28;20231;-89
2020/12/05 09:47:41;;;;;;;5.87;4.60;;;5.00;99.90;;;;;;5002031;28;20241;-90
2020/12/05 09:50:07;;;;;;;8.27;5.40;;;5.20;99.90;;;;;;5003131;28;20269;-87
2020/12/05 09:52:33;;;;;;;5.60;4.70;;;5.30;99.90;;;;;;5001933;28;20211;-91
2020/12/05 09:54:59;;;;;;;11.00;6.07;;;5.40;99.90;;;;;;5001079;28;20226;-88
2020/12/05 09:57:25;;;;;;;6.27;5.40;;;5.40;99.90;;;;;;4985550;28;20219;-87
2020/12/05 09:59:51;;;;;;;5.70;5.20;;;5.40;99.90;;;;;;4985727;28;20393;-90
2020/12/05 10:02:17;;;;;;;6.77;4.63;;;5.40;99.90;;;;;;5002317;28;20663;-89
2020/12/05 10:04:43;;;;;;;7.67;4.97;;;5.30;99.90;;;;;;5003172;28;20223;-90
2020/12/05 10:07:08;;;;;;;9.00;5.20;;;5.40;99.90;;;;;;4989701;28;20251;-88
2020/12/05 10:09:35;;;;;;;5.57;4.20;;;5.50;99.90;;;;;;4980519;28;20433;-87
2020/12/05 10:12:02;;;;;;;8.67;6.50;;;5.50;99.90;;;;;;4966409;28;20224;-89
2020/12/05 10:14:28;;;;;;;8.67;4.37;;;5.60;99.90;;;;;;4984397;28;20247;-90
2020/12/05 10:16:53;;;;;;;8.17;5.73;;;5.60;99.90;;;;;;4996744;28;20744;-91
2020/12/05 10:19:19;;;;;;;8.30;6.47;;;5.70;99.90;;;;;;4970952;28;20306;-88
2020/12/05 10:21:49;;;;;;;5.47;4.97;;;5.70;99.90;;;;;;4982117;28;20696;-89
2020/12/05 10:24:16;;;;;;;7.07;4.90;;;5.70;99.90;;;;;;4982170;28;20719;-88
2020/12/05 10:26:53;;;;;;;5.80;4.30;;;5.60;99.90;;;;;;4965043;28;20227;-89
2020/12/05 10:29:23;;;;;;;4.23;3.93;;;5.60;99.90;;;;;;4984345;28;20668;-88
2020/12/05 10:31:54;;;;;;;4.87;3.93;;;5.50;99.90;;;;;;4982358;28;20226;-89
2020/12/05 10:34:21;;;;;;;4.13;3.83;;;5.60;99.90;;;;;;4982063;28;20218;-89
2020/12/05 10:36:47;;;;;;;5.93;5.03;;;5.70;99.90;;;;;;4983029;28;20220;-90
2020/12/05 10:39:14;;;;;;;5.83;4.40;;;5.80;99.90;;;;;;4982325;28;20273;-89
2020/12/05 10:41:40;;;;;;;5.33;4.47;;;5.90;99.90;;;;;;4983121;28;20274;-89
2020/12/05 10:44:08;;;;;;;5.40;4.00;;;6.10;99.90;;;;;;4968056;28;20196;-89
2020/12/05 10:46:42;;;;;;;4.83;3.93;;;6.40;99.90;;;;;;4982556;28;20236;-89
2020/12/05 10:49:08;;;;;;;7.57;3.97;;;6.70;99.90;;;;;;4982988;28;20266;-90
2020/12/05 10:51:35;;;;;;;4.33;4.03;;;6.80;99.90;;;;;;4982144;28;21252;-89
2020/12/05 10:54:00;;;;;;;3.70;2.20;;;7.00;99.90;;;;;;4981927;28;20633;-89
2020/12/05 10:56:26;;;;;;;8.23;4.07;;;7.20;99.90;;;;;;4984092;28;20680;-89
2020/12/05 10:58:52;;;;;;;31.10;16.73;;;7.30;99.90;;;;;;4982402;28;20758;-89
2020/12/05 11:01:19;;;;;;;7.20;3.10;;;7.30;99.90;;;;;;4981897;28;20355;-88
2020/12/05 11:03:45;;;;;;;5.43;2.40;;;7.30;99.90;;;;;;4980214;28;20216;-86
2020/12/05 11:06:11;;;;;;;3.30;2.43;;;7.30;99.90;;;;;;4965438;28;21204;-90
2020/12/05 11:08:37;;;;;;;2.70;2.50;;;7.20;99.90;;;;;;4966784;28;20238;-89
2020/12/05 11:11:03;;;;;;;2.80;2.23;;;6.90;99.90;;;;;;5001078;28;20196;-89
2020/12/05 11:13:28;;;;;;;5.47;4.87;;;6.80;99.90;;;;;;4950247;28;20227;-90
2020/12/05 11:15:54;;;;;;;7.27;5.30;;;6.80;99.90;;;;;;4949670;28;20235;-89
2020/12/05 11:18:20;;;;;;;11.43;5.87;;;6.70;99.90;;;;;;4965152;28;20226;-89
2020/12/05 11:20:46;;;;;;;5.83;3.80;;;6.70;99.90;;;;;;4982413;28;20202;-89
2020/12/05 11:23:11;;;;;;;4.73;3.63;;;6.60;99.90;;;;;;4967862;28;20242;-88
2020/12/05 11:25:38;;;;;;;3.10;2.67;;;6.70;99.90;;;;;;4965881;28;20704;-88
2020/12/05 11:28:03;;;;;;;7.03;3.70;;;6.70;99.90;;;;;;4998214;28;20208;-89
2020/12/05 11:30:29;;;;;;;7.67;3.67;;;6.70;99.90;;;;;;4965909;28;20703;-90
2020/12/05 11:32:55;;;;;;;5.90;3.60;;;6.70;99.90;;;;;;4981969;28;20273;-88
2020/12/05 11:35:20;;;;;;;10.83;6.13;;;6.60;99.90;;;;;;4967716;28;20192;-89
2020/12/05 11:37:46;;;;;;;12.07;5.80;;;6.60;99.90;;;;;;4950800;28;20289;-89
2020/12/05 11:40:12;;;;;;;8.47;4.60;;;6.50;99.90;;;;;;4933516;28;20737;-90
2020/12/05 11:42:38;;;;;;;13.77;5.37;;;6.40;99.90;;;;;;4928805;28;20244;-90
2020/12/05 11:45:05;;;;;;;4.50;3.20;;;6.40;99.90;;;;;;4964410;28;20223;-89
2020/12/05 11:47:31;;;;;;;3.83;3.03;;;6.40;99.90;;;;;;4996864;28;20253;-90
2020/12/05 11:49:56;;;;;;;9.77;5.37;;;6.40;99.90;;;;;;4946307;28;20672;-91
2020/12/05 11:52:22;;;;;;;16.37;8.77;;;6.40;99.90;;;;;;4944333;28;20216;-91
2020/12/05 11:54:48;;;;;;;3.77;3.40;;;6.40;99.90;;;;;;4944706;28;20243;-90
2020/12/05 11:57:14;;;;;;;13.43;6.73;;;6.40;99.90;;;;;;4946115;28;20726;-90
2020/12/05 11:59:41;;;;;;;5.00;3.53;;;6.40;99.90;;;;;;4948658;28;20541;-91
2020/12/05 12:02:07;;;;;;;7.13;5.87;;;6.40;99.90;;;;;;4950864;28;20218;-90
2020/12/05 12:04:34;;;;;;;4.10;2.27;;;6.40;99.90;;;;;;4980756;28;20223;-89
2020/12/05 12:07:00;;;;;;;3.30;2.67;;;6.30;99.90;;;;;;4963244;28;20365;-90
2020/12/05 12:09:26;;;;;;;4.67;3.87;;;6.40;99.90;;;;;;4979465;28;20250;-89
2020/12/05 12:11:52;;;;;;;8.47;4.67;;;6.40;99.90;;;;;;4984098;28;20684;-89
2020/12/05 12:14:17;;;;;;;2.83;2.50;;;6.40;99.90;;;;;;4970204;28;20191;-89
2020/12/05 12:16:47;;;;;;;2.83;2.63;;;6.40;99.90;;;;;;4982093;28;20219;-88
2020/12/05 12:19:13;;;;;;;2.47;2.27;;;6.40;99.90;;;;;;4987534;28;20223;-87
2020/12/05 12:21:39;;;;;;;6.47;4.90;;;6.40;99.90;;;;;;4981181;28;20216;-89
2020/12/05 12:24:04;;;;;;;2.47;2.27;;;6.40;99.90;;;;;;4982033;28;20231;-88
2020/12/05 12:26:30;;;;;;;5.50;3.33;;;6.50;99.90;;;;;;4964912;28;20212;-89
2020/12/05 12:28:56;;;;;;;4.20;3.70;;;6.50;99.90;;;;;;4982995;28;20184;-88
2020/12/05 12:31:22;;;;;;;2.20;2.10;;;6.50;99.90;;;;;;4964079;28;20215;-89
2020/12/05 12:33:48;;;;;;;2.40;2.20;;;6.50;99.90;;;;;;4957080;28;20223;-88
2020/12/05 12:36:21;;;;;;;3.73;2.40;;;6.50;99.90;;;;;;4964336;28;20235;-88
2020/12/05 12:38:47;;;;;;;2.40;2.23;;;6.60;99.90;;;;;;4980208;28;20192;-87
2020/12/05 12:41:17;;;;;;;2.77;2.57;;;6.60;99.90;;;;;;4981639;28;20223;-89
2020/12/05 12:43:43;;;;;;;2.83;2.63;;;6.60;99.90;;;;;;4999274;28;21120;-88
2020/12/05 12:46:10;;;;;;;3.50;3.20;;;6.80;99.90;;;;;;4985540;28;21156;-89
2020/12/05 12:48:37;;;;;;;2.73;2.53;;;7.00;99.90;;;;;;4981785;28;20214;-87
2020/12/05 12:51:02;;;;;;;2.70;2.43;;;7.30;99.90;;;;;;4979825;28;20231;-87
2020/12/05 12:53:28;;;;;;;2.73;2.20;;;7.50;99.90;;;;;;4980366;28;20251;-88
2020/12/05 12:55:54;;;;;;;2.83;2.63;;;7.40;99.90;;;;;;4970284;28;20250;-88
2020/12/05 13:00:54;;;;;;;2.20;2.10;;;7.40;99.90;;;;;;4988973;28;20222;-89
2020/12/05 13:03:20;;;;;;;3.47;3.17;;;7.30;99.90;;;;;;4964330;28;21196;-89
2020/12/05 13:05:46;;;;;;;3.77;2.10;;;7.20;99.90;;;;;;4945784;28;20227;-88